Airfield :
LOGIN :

Register | Disclaimer

   EN    FR    IT 

 










Legend :    VFR   Marginal VFR   IFR   Intensive IFR   Very Intensive IFR
Visi :
Ceiling :
>= 8 km
>= 3000ft
5 to 8 km
1000 to 3000 ft
1500m to 5 km
500 to 1000 ft
800 to 1500m
200 to 500 ft
< 800m
< 200 ft
Symbols :   Thunderstorms  Fog  Heavy snow  Heavy precipitations  Wind > 20 kt
SIGMETs :     Misc.  Thunderstorms  Icing  Turbulence  Mountain Waves  Volcanic Ashes






- Airport Elevation : 120 ft
- IATA code : MME


EGNV - Durham Tees valley

CURRENT METAR :
  • 241550Z 22013KT 9999 FEW012 BKN025 20/15 Q1009

EXPIRED METARs :
  • 241520Z 23014KT 9999 FEW015 BKN028 21/15 Q1009
  • 241450Z 23016KT 9999 FEW020 BKN033 21/15 Q1009
  • 241420Z 24015KT 9999 FEW020 BKN030 21/15 Q1009
  • 241350Z 26016KT 9999 FEW020 BKN036 21/15 Q1009
  • 241320Z 26015KT 9999 FEW026 SCT042 21/15 Q1009

TAF TAF EGNV
Valid from the 24 at 15:00 until the 24 at 21:00 UTC


241401Z 2415/2421 24012KT 9999 FEW030
PROB30
TEMPO 2415/2417 26018G28KT
ATIS : +44 9012 018 111



MET'MAP, your aeronautical weather chart ! - Copyright ORBIFLY December 2007 - Disclaimer

ORBIFLY MET'MAP TEAM :

Programming & Development : Alexandra Zaïnal
Concept & original design : Baudouin d'Aumeries
Assistance for programming : Marc-Olivier Méhu
Technical & hardware support : Manuel Goepfert

Contact : metmap@orbifly.com




SOURCES & CREDITS :

   NOAA